Weather History for Hazen, ND

Change the Weather History Date:

Thursday, November 8, 2012

  Actual Average (KN60) Record (KN60)
Temperature  
Mean Temperature 37 °F -  
Max Temperature 46 °F 38 °F 73 °F (1999)
Min Temperature 28 °F 19 °F 3 °F (2008)
Degree Days  
Heating Degree Days 28    
Moisture  
Dew Point 30 °F    
Average Humidity 77    
Maximum Humidity 87    
Minimum Humidity 66    
Precipitation  
Precipitation 0.00 in - - ()
Sea Level Pressure  
Sea Level Pressure 30.03 in    
Wind  
Wind Speed 11 mph (NNE)    
Max Wind Speed 20 mph    
Max Gust Speed 28 mph    
Visibility 10 miles    
Events Rain    
Averages and records for this station are not official NWS values.
T = Trace of Precipitation, MM = Missing Value Source: NWS Daily Summary

Daily Weather History Graph

Daily Weather History Graph

Search for Another Location

Airport:

Trip Planner

Search our weather history database for the weather conditions in past years. The results will help you decide how hot, cold, wet, or windy it might be!

Date:

Astronomy

Nov. 08, 2012 Rise Set
Actual Time 7:40 AM CST 5:18 PM CST
Civil Twilight 7:08 AM CST 5:51 PM CST
Nautical Twilight 6:31 AM CST 6:28 PM CST
Astronomical Twilight 5:55 AM CST 7:03 PM CST
Moon 1:15 AM CST (11/8) 2:21 PM CST (11/8)
Length of Visible Light 10h 43m
Length of Day
9h 37m
Waning Crescent, 32% of the Moon is Illuminated
Nov 8
Waning Crescent
Nov 13
New
Nov 20
First Quarter
Nov 28
Full
Dec 6
Last Quarter

Hourly Weather History & Observations

Time (CST) Temp. Windchill Dew Point Humidity Pressure Visibility Wind Dir Wind Speed Gust Speed Precip Events Conditions
12:15 AM 41.0 °F 36.4 °F 32.0 °F 70% 29.78 in 10.0 mi West 6.9 mph - N/A   Scattered Clouds
12:35 AM 44.6 °F 41.4 °F 33.8 °F 66% 29.79 in 10.0 mi SW 5.8 mph - N/A   Mostly Cloudy
12:55 AM 41.0 °F 35.2 °F 32.0 °F 70% 29.79 in 10.0 mi SW 9.2 mph - N/A   Partly Cloudy
1:15 AM 39.2 °F 35.0 °F 32.0 °F 75% 29.80 in 10.0 mi SW 5.8 mph - N/A   Clear
1:35 AM 44.6 °F 40.2 °F 35.6 °F 71% 29.80 in 10.0 mi West 8.1 mph - N/A   Partly Cloudy
1:55 AM 44.6 °F 40.2 °F 35.6 °F 71% 29.80 in 10.0 mi West 8.1 mph - N/A   Partly Cloudy
2:15 AM 44.6 °F 39.7 °F 37.4 °F 76% 29.83 in 10.0 mi WSW 9.2 mph - N/A   Mostly Cloudy
2:35 AM 44.6 °F 38.8 °F 39.2 °F 81% 29.82 in 10.0 mi WNW 11.5 mph - N/A   Mostly Cloudy
2:55 AM 46.4 °F 40.1 °F 39.2 °F 76% 29.84 in 10.0 mi WNW 15.0 mph 18.4 mph N/A   Mostly Cloudy
3:15 AM 44.6 °F 37.8 °F 37.4 °F 76% 29.86 in 10.0 mi NW 15.0 mph 20.7 mph N/A   Mostly Cloudy
3:35 AM 42.8 °F 35.8 °F 35.6 °F 76% 29.88 in 10.0 mi NNW 13.8 mph 23.0 mph N/A   Overcast
3:55 AM 41.0 °F 32.8 °F 35.6 °F 81% 29.89 in 10.0 mi NNW 16.1 mph 24.2 mph N/A Rain Light Rain
4:15 AM 39.2 °F 31.6 °F 35.6 °F 87% 29.91 in 10.0 mi NW 12.7 mph 20.7 mph N/A   Overcast
4:35 AM 39.2 °F 32.5 °F 33.8 °F 81% 29.91 in 10.0 mi NNW 10.4 mph - N/A   Overcast
4:55 AM 39.2 °F 31.6 °F 32.0 °F 75% 29.93 in 10.0 mi NW 12.7 mph 17.3 mph N/A   Mostly Cloudy
5:15 AM 37.4 °F 28.2 °F 32.0 °F 81% 29.94 in 10.0 mi NW 16.1 mph 21.9 mph N/A   Mostly Cloudy
5:35 AM 37.4 °F 28.5 °F 32.0 °F 81% 29.96 in 10.0 mi NW 15.0 mph 21.9 mph N/A   Overcast
5:55 AM 37.4 °F 28.2 °F 32.0 °F 81% 29.97 in 10.0 mi NNW 16.1 mph 21.9 mph N/A   Overcast
6:15 AM 37.4 °F 27.2 °F 32.0 °F 81% 29.97 in 10.0 mi NNW 19.6 mph 25.3 mph N/A   Overcast
6:55 AM 37.4 °F 28.5 °F 32.0 °F 81% 29.99 in 10.0 mi NNW 15.0 mph 27.6 mph N/A   Overcast
7:15 AM 37.4 °F 28.5 °F 32.0 °F 81% 30.00 in 10.0 mi NNW 15.0 mph 25.3 mph N/A   Overcast
7:35 AM 35.6 °F 25.9 °F 30.2 °F 81% 30.01 in 10.0 mi NNW 16.1 mph 25.3 mph N/A   Overcast
7:55 AM 37.4 °F 27.2 °F 28.4 °F 70% 30.03 in 10.0 mi NNW 19.6 mph 25.3 mph N/A   Overcast
8:15 AM 35.6 °F 24.8 °F 28.4 °F 75% 30.04 in 10.0 mi NNW 19.6 mph 23.0 mph N/A   Overcast
8:35 AM 35.6 °F 28.0 °F 30.2 °F 81% 30.06 in 10.0 mi NNW 10.4 mph 24.2 mph N/A   Overcast
8:55 AM 35.6 °F 25.9 °F 30.2 °F 81% 30.06 in 10.0 mi NNW 16.1 mph 21.9 mph N/A   Overcast
9:15 AM 35.6 °F 26.6 °F 28.4 °F 75% 30.07 in 10.0 mi NNW 13.8 mph 18.4 mph N/A   Overcast
9:35 AM 37.4 °F 29.3 °F 30.2 °F 75% 30.07 in 10.0 mi NNW 12.7 mph 17.3 mph N/A   Overcast
9:55 AM 37.4 °F 29.3 °F 30.2 °F 75% 30.07 in 10.0 mi North 12.7 mph - N/A   Overcast
10:15 AM 37.4 °F 29.8 °F 28.4 °F 70% 30.08 in 10.0 mi North 11.5 mph - N/A   Overcast
10:35 AM 37.4 °F 28.9 °F 28.4 °F 70% 30.09 in 10.0 mi North 13.8 mph - N/A   Overcast
10:55 AM 35.6 °F 27.1 °F 30.2 °F 81% 30.09 in 10.0 mi NNE 12.7 mph - N/A   Overcast
11:15 AM 35.6 °F 26.6 °F 28.4 °F 75% 30.09 in 10.0 mi NNE 13.8 mph - N/A   Overcast
11:35 AM 37.4 °F 29.8 °F 30.2 °F 75% 30.09 in 10.0 mi North 11.5 mph 18.4 mph N/A   Overcast
11:55 AM 37.4 °F 28.9 °F 30.2 °F 75% 30.10 in 10.0 mi North 13.8 mph - N/A   Overcast
12:15 PM 37.4 °F 28.9 °F 30.2 °F 75% 30.09 in 10.0 mi NNE 13.8 mph - N/A   Overcast
12:35 PM 37.4 °F 30.3 °F 28.4 °F 70% 30.09 in 10.0 mi NNE 10.4 mph - N/A   Overcast
12:55 PM 37.4 °F 29.3 °F 28.4 °F 70% 30.09 in 10.0 mi NNE 12.7 mph - N/A   Overcast
1:15 PM 37.4 °F 29.8 °F 28.4 °F 70% 30.09 in 10.0 mi NNE 11.5 mph - N/A   Overcast
1:35 PM 37.4 °F 29.8 °F 28.4 °F 70% 30.09 in 10.0 mi NNE 11.5 mph 17.3 mph N/A   Overcast
1:55 PM 37.4 °F 29.8 °F 28.4 °F 70% 30.10 in 10.0 mi NE 11.5 mph 16.1 mph N/A   Overcast
2:15 PM 37.4 °F 30.3 °F 28.4 °F 70% 30.11 in 10.0 mi NE 10.4 mph - N/A   Overcast
2:35 PM 35.6 °F 28.0 °F 28.4 °F 75% 30.11 in 10.0 mi NNE 10.4 mph - N/A   Overcast
2:55 PM 35.6 °F 29.2 °F 28.4 °F 75% 30.11 in 10.0 mi NNE 8.1 mph - N/A   Overcast
3:15 PM 35.6 °F 28.0 °F 28.4 °F 75% 30.10 in 10.0 mi NE 10.4 mph 16.1 mph N/A   Overcast
3:35 PM 35.6 °F 28.0 °F 28.4 °F 75% 30.09 in 10.0 mi NNE 10.4 mph 18.4 mph N/A   Overcast
3:55 PM 35.6 °F 28.6 °F 28.4 °F 75% 30.09 in 10.0 mi NE 9.2 mph - N/A   Overcast
4:15 PM 35.6 °F 28.0 °F 28.4 °F 75% 30.09 in 10.0 mi NE 10.4 mph - N/A   Overcast
4:35 PM 35.6 °F 28.6 °F 28.4 °F 75% 30.09 in 10.0 mi ENE 9.2 mph 18.4 mph N/A   Overcast
4:55 PM 35.6 °F 27.5 °F 28.4 °F 75% 30.09 in 10.0 mi ENE 11.5 mph - N/A   Overcast
5:15 PM 35.6 °F 28.0 °F 28.4 °F 75% 30.09 in 10.0 mi NE 10.4 mph - N/A   Overcast
5:35 PM 33.8 °F 25.8 °F 28.4 °F 81% 30.10 in 10.0 mi ENE 10.4 mph - N/A   Overcast
5:55 PM 33.8 °F 26.4 °F 28.4 °F 81% 30.09 in 10.0 mi ENE 9.2 mph - N/A   Overcast
6:15 PM 35.6 °F 27.5 °F 26.6 °F 70% 30.09 in 10.0 mi ENE 11.5 mph 16.1 mph N/A   Overcast
6:35 PM 35.6 °F 28.0 °F 26.6 °F 70% 30.10 in 10.0 mi ENE 10.4 mph 16.1 mph N/A   Overcast
6:55 PM 33.8 °F 25.8 °F 26.6 °F 75% 30.11 in 10.0 mi East 10.4 mph 17.3 mph N/A   Overcast
7:15 PM 33.8 °F 25.8 °F 26.6 °F 75% 30.11 in 10.0 mi East 10.4 mph - N/A   Overcast
7:35 PM 33.8 °F 25.3 °F 26.6 °F 75% 30.12 in 10.0 mi East 11.5 mph 16.1 mph N/A   Overcast
7:55 PM 33.8 °F 24.8 °F 26.6 °F 75% 30.12 in 10.0 mi East 12.7 mph - N/A   Overcast
8:15 PM 32.0 °F 22.5 °F 26.6 °F 80% 30.11 in 10.0 mi East 12.7 mph 18.4 mph N/A   Overcast
8:35 PM 32.0 °F 23.0 °F 26.6 °F 80% 30.12 in 10.0 mi East 11.5 mph 19.6 mph N/A   Overcast
8:55 PM 32.0 °F 22.5 °F 26.6 °F 80% 30.12 in 10.0 mi East 12.7 mph 17.3 mph N/A   Overcast
9:15 PM 32.0 °F 24.2 °F 26.6 °F 80% 30.13 in 10.0 mi East 9.2 mph 16.1 mph N/A   Overcast
9:35 PM 32.0 °F 23.0 °F 26.6 °F 80% 30.14 in 10.0 mi ENE 11.5 mph - N/A   Overcast
9:55 PM 32.0 °F 22.1 °F 26.6 °F 80% 30.14 in 10.0 mi East 13.8 mph - N/A   Overcast
10:15 PM 30.2 °F 19.8 °F 26.6 °F 86% 30.14 in 10.0 mi ENE 13.8 mph 19.6 mph N/A   Overcast
10:35 PM 30.2 °F 19.8 °F 26.6 °F 86% 30.14 in 10.0 mi ENE 13.8 mph 19.6 mph N/A   Overcast
10:55 PM 30.2 °F 18.9 °F 24.8 °F 80% 30.15 in 10.0 mi ENE 16.1 mph 19.6 mph N/A   Overcast
11:15 PM 28.4 °F 19.7 °F 24.8 °F 86% 30.15 in 10.0 mi East 9.2 mph 18.4 mph N/A   Overcast
11:35 PM 28.4 °F 17.5 °F 24.8 °F 86% 30.14 in 10.0 mi ENE 13.8 mph 18.4 mph N/A   Overcast
11:55 PM 28.4 °F 18.0 °F 24.8 °F 86% 30.14 in 10.0 mi East 12.7 mph 18.4 mph N/A   Overcast